Longmire, Washington
Current Conditions -  °F | °C
As of 5:58 PM on Saturday 22 Nov 2014 (Local Time) from KTCM Reporting Station
Few Clouds Few Clouds  
Wind Chill: 38°   Ceiling: Unl
Heat Index: 43°   Visibility: 10mi
Dew Point: 42°   Wind: 8mph
Humidity: 95%   Direction: 180°S
Pressure: 30.03"   Gusts: NA
Location:  46.75°N, 121.81°W
Report Text: KTCM 230158Z AUTO 18007KT 10SM FEW160 06/06 A3003 RMK AO2 SLP175 T00620055 $
Loading
Personal Weather Stations






























Interactive Weather Map New forecast layout! Learn more

10-Day Weather Forecast

Advertisements
Track Severe Weather on mobile